createdAt,value
2022-09-15T00:05:34.140Z,100
2022-09-15T00:11:25.938Z,100
2022-09-15T00:17:15.632Z,100
2022-09-15T00:23:06.869Z,100
2022-09-15T00:29:01.558Z,100
2022-09-15T00:34:56.446Z,100
2022-09-15T00:40:49.262Z,100
2022-09-15T00:47:04.210Z,100
2022-09-15T00:53:08.829Z,100
2022-09-15T00:58:58.811Z,100
2022-09-15T01:04:49.403Z,100
2022-09-15T01:10:49.027Z,100
2022-09-15T01:16:41.939Z,100
2022-09-15T01:22:35.154Z,100
2022-09-15T01:28:25.148Z,100
2022-09-15T01:34:18.848Z,100
2022-09-15T01:40:09.184Z,100
2022-09-15T01:46:00.281Z,100
2022-09-15T01:51:53.095Z,100
2022-09-15T01:57:45.785Z,100
2022-09-15T02:03:46.528Z,100
2022-09-15T02:09:43.604Z,100
2022-09-15T02:15:34.631Z,100
2022-09-15T02:21:30.231Z,100
2022-09-15T02:27:21.077Z,100
2022-09-15T02:33:12.250Z,100
2022-09-15T02:39:04.057Z,100
2022-09-15T02:44:58.977Z,100
2022-09-15T02:50:48.964Z,100
2022-09-15T02:56:42.643Z,100
2022-09-15T03:02:37.571Z,100
2022-09-15T03:08:29.259Z,100
2022-09-15T03:14:20.242Z,100
2022-09-15T03:20:12.180Z,100
2022-09-15T03:26:04.839Z,100
2022-09-15T03:32:03.616Z,100
2022-09-15T03:37:54.062Z,100
2022-09-15T03:43:43.990Z,100
2022-09-15T03:49:37.089Z,100
2022-09-15T03:55:29.071Z,100
2022-09-15T04:01:21.242Z,100
2022-09-15T04:07:16.371Z,100
2022-09-15T04:13:06.761Z,100
2022-09-15T04:18:57.108Z,100
2022-09-15T04:24:50.089Z,100
2022-09-15T04:30:41.136Z,100
2022-09-15T04:36:34.235Z,100
2022-09-15T04:42:24.658Z,100
2022-09-15T04:48:17.678Z,100
2022-09-15T04:54:09.204Z,100
2022-09-15T05:00:05.309Z,100
2022-09-15T05:05:57.355Z,100
2022-09-15T05:11:46.869Z,100
2022-09-15T05:17:37.139Z,100
2022-09-15T05:23:26.534Z,100
2022-09-15T05:29:37.089Z,100
2022-09-15T05:43:05.741Z,100
2022-09-15T05:49:26.279Z,100
2022-09-15T07:23:21.026Z,100
2022-09-15T07:29:41.773Z,100
2022-09-15T07:35:57.031Z,100
2022-09-15T07:42:09.566Z,100
2022-09-15T07:48:31.660Z,100
2022-09-15T07:54:36.454Z,100
2022-09-15T08:29:55.051Z,100
2022-09-15T08:36:03.842Z,100
2022-09-15T08:41:57.003Z,100
2022-09-15T08:47:49.218Z,100
2022-09-15T08:53:47.788Z,100
2022-09-15T08:59:39.947Z,100
2022-09-15T09:05:34.219Z,100
2022-09-15T09:11:29.117Z,100
2022-09-15T09:17:25.340Z,99.1
2022-09-15T09:23:21.154Z,95.9
2022-09-15T09:29:12.084Z,96.8
2022-09-15T09:35:05.341Z,98.1
2022-09-15T09:41:03.589Z,97.4
2022-09-15T09:46:55.342Z,97.8
2022-09-15T09:52:50.612Z,96.1
2022-09-15T09:58:45.709Z,97.5
2022-09-15T10:04:38.082Z,96.5
2022-09-15T10:10:32.808Z,97.5
2022-09-15T10:16:24.858Z,94.1
2022-09-15T10:22:14.431Z,91.8
2022-09-15T10:28:08.735Z,86.7
2022-09-15T10:33:59.768Z,86.3
2022-09-15T10:39:49.797Z,87.3
2022-09-15T10:45:44.769Z,83.8
2022-09-15T10:51:35.833Z,82.3
2022-09-15T10:57:31.073Z,79.8
2022-09-15T11:03:22.077Z,79
2022-09-15T11:09:17.682Z,79.8
2022-09-15T11:15:35.098Z,75.3
2022-09-15T11:21:27.954Z,75.3
2022-09-15T11:33:32.242Z,76.8
2022-09-15T11:39:26.494Z,76.1
2022-09-15T11:45:23.711Z,75.1
2022-09-15T11:51:22.143Z,74.1
2022-09-15T11:57:14.510Z,75.7
2022-09-15T12:03:07.240Z,73.7
2022-09-15T12:08:59.690Z,74.7
2022-09-15T12:14:52.909Z,72.8
2022-09-15T12:20:47.965Z,73.5
2022-09-15T12:26:42.096Z,73.6
2022-09-15T12:32:33.615Z,70.8
2022-09-15T12:38:24.295Z,71.8
2022-09-15T12:44:16.611Z,73.9
2022-09-15T12:50:06.736Z,73.6
2022-09-15T12:56:03.272Z,67.5
2022-09-15T13:01:52.127Z,67.9
2022-09-15T13:07:41.520Z,66.2
2022-09-15T13:13:35.029Z,65.3
2022-09-15T13:19:25.584Z,66.4
2022-09-15T13:25:17.350Z,66.4
2022-09-15T13:31:10.703Z,68.6
2022-09-15T13:44:25.663Z,66.3
2022-09-15T13:50:17.878Z,67.1
2022-09-15T13:56:10.702Z,66.3
2022-09-15T14:02:04.615Z,65.8
2022-09-15T14:08:03.226Z,66.2
2022-09-15T14:13:52.862Z,65.8
2022-09-15T14:19:43.301Z,66.1
2022-09-15T14:25:35.161Z,67.3
2022-09-15T14:31:27.187Z,67.4
2022-09-15T14:37:19.157Z,66.4
2022-09-15T14:43:09.310Z,66.6
2022-09-15T14:49:04.028Z,67.1
2022-09-15T14:54:54.147Z,65.8
2022-09-15T15:00:44.839Z,66.2
2022-09-15T15:06:38.251Z,67.1
2022-09-15T15:12:30.392Z,68.8
2022-09-15T15:18:22.026Z,68.9
2022-09-15T15:49:03.260Z,78.3
2022-09-15T15:55:25.540Z,77.1
2022-09-15T16:27:20.434Z,76.8
2022-09-15T16:33:35.971Z,77.5
2022-09-15T17:33:50.533Z,80.1
2022-09-15T17:39:41.018Z,80.1
2022-09-15T18:16:32.158Z,75.9
2022-09-15T18:22:41.692Z,76.6
2022-09-15T19:29:54.458Z,77.9
2022-09-15T19:36:28.648Z,77.6
2022-09-15T19:42:27.728Z,78.2
2022-09-15T20:59:53.858Z,78.1
2022-09-15T21:05:47.357Z,77.2
2022-09-15T21:11:37.761Z,76.7
2022-09-15T21:17:39.529Z,76
2022-09-15T21:23:49.650Z,76.5
2022-09-15T21:29:50.279Z,76.3
2022-09-15T21:35:45.929Z,77
2022-09-15T21:41:42.520Z,76.1
2022-09-15T21:47:32.797Z,76
2022-09-15T21:53:28.163Z,76.9
2022-09-15T21:59:23.135Z,76.5
2022-09-15T22:05:21.537Z,76.5
2022-09-15T22:11:14.398Z,76.3
2022-09-15T22:17:04.836Z,75.8
2022-09-15T22:23:09.248Z,76.1
2022-09-15T22:40:58.105Z,77.6
2022-09-15T22:47:03.187Z,78.1
2022-09-15T22:52:53.479Z,78.7
2022-09-15T22:58:44.134Z,79.4
2022-09-15T23:04:34.891Z,79.5
2022-09-15T23:10:25.738Z,80.6
2022-09-15T23:16:16.521Z,80.1
2022-09-15T23:22:06.522Z,80.3
2022-09-15T23:27:58.117Z,80.4
2022-09-15T23:33:48.264Z,80.3
2022-09-15T23:39:39.127Z,79.3
2022-09-15T23:45:29.877Z,79.6
2022-09-15T23:51:20.193Z,79.6
2022-09-15T23:57:10.811Z,79.5
